sensor_id;sensor_type;location;lat;lon;timestamp;P1;durP1;ratioP1;P2;durP2;ratioP2
19173;SDS011;9719;49.322;8.536;2022-11-20T00:02:27;24.83;;;10.37;;
19173;SDS011;9719;49.322;8.536;2022-11-20T00:07:30;27.47;;;10.67;;
19173;SDS011;9719;49.322;8.536;2022-11-20T00:12:32;47.73;;;14.03;;
19173;SDS011;9719;49.322;8.536;2022-11-20T00:17:34;28.70;;;11.40;;
19173;SDS011;9719;49.322;8.536;2022-11-20T00:22:37;26.17;;;11.90;;
19173;SDS011;9719;49.322;8.536;2022-11-20T00:27:39;19.60;;;9.60;;
19173;SDS011;9719;49.322;8.536;2022-11-20T00:32:40;24.23;;;11.33;;
19173;SDS011;9719;49.322;8.536;2022-11-20T00:37:44;30.00;;;10.90;;
19173;SDS011;9719;49.322;8.536;2022-11-20T00:42:45;13.87;;;8.80;;
19173;SDS011;9719;49.322;8.536;2022-11-20T00:47:47;28.50;;;10.57;;
19173;SDS011;9719;49.322;8.536;2022-11-20T00:52:50;12.90;;;9.30;;
19173;SDS011;9719;49.322;8.536;2022-11-20T00:57:52;21.20;;;9.63;;
19173;SDS011;9719;49.322;8.536;2022-11-20T01:02:55;23.80;;;9.90;;
19173;SDS011;9719;49.322;8.536;2022-11-20T01:07:58;16.57;;;8.43;;
19173;SDS011;9719;49.322;8.536;2022-11-20T01:13:00;14.93;;;9.20;;
19173;SDS011;9719;49.322;8.536;2022-11-20T01:18:15;15.50;;;9.30;;
19173;SDS011;9719;49.322;8.536;2022-11-20T01:23:18;19.10;;;10.47;;
19173;SDS011;9719;49.322;8.536;2022-11-20T01:28:20;26.63;;;9.27;;
19173;SDS011;9719;49.322;8.536;2022-11-20T01:33:22;36.37;;;11.13;;
19173;SDS011;9719;49.322;8.536;2022-11-20T01:38:26;29.07;;;10.73;;
19173;SDS011;9719;49.322;8.536;2022-11-20T01:43:27;12.57;;;7.97;;
19173;SDS011;9719;49.322;8.536;2022-11-20T01:48:31;11.93;;;8.70;;
19173;SDS011;9719;49.322;8.536;2022-11-20T01:53:38;9.83;;;8.70;;
19173;SDS011;9719;49.322;8.536;2022-11-20T01:58:41;17.50;;;7.90;;
19173;SDS011;9719;49.322;8.536;2022-11-20T02:03:47;23.20;;;8.80;;
19173;SDS011;9719;49.322;8.536;2022-11-20T02:08:51;19.07;;;8.30;;
19173;SDS011;9719;49.322;8.536;2022-11-20T02:13:54;22.53;;;8.93;;
19173;SDS011;9719;49.322;8.536;2022-11-20T02:18:56;27.63;;;10.70;;
19173;SDS011;9719;49.322;8.536;2022-11-20T02:24:05;12.17;;;8.37;;
19173;SDS011;9719;49.322;8.536;2022-11-20T02:29:09;24.87;;;9.53;;
19173;SDS011;9719;49.322;8.536;2022-11-20T02:34:11;24.40;;;9.37;;
19173;SDS011;9719;49.322;8.536;2022-11-20T02:39:14;14.37;;;9.50;;
19173;SDS011;9719;49.322;8.536;2022-11-20T02:44:17;29.57;;;10.20;;
19173;SDS011;9719;49.322;8.536;2022-11-20T02:49:19;18.15;;;9.18;;
19173;SDS011;9719;49.322;8.536;2022-11-20T02:54:23;32.33;;;8.60;;
19173;SDS011;9719;49.322;8.536;2022-11-20T02:59:25;18.08;;;8.77;;
19173;SDS011;9719;49.322;8.536;2022-11-20T03:04:27;21.40;;;9.67;;
19173;SDS011;9719;49.322;8.536;2022-11-20T03:09:30;30.93;;;10.50;;
19173;SDS011;9719;49.322;8.536;2022-11-20T03:14:32;35.57;;;10.13;;
19173;SDS011;9719;49.322;8.536;2022-11-20T03:19:34;20.90;;;9.57;;
19173;SDS011;9719;49.322;8.536;2022-11-20T03:24:37;15.07;;;8.77;;
19173;SDS011;9719;49.322;8.536;2022-11-20T03:29:39;14.10;;;8.77;;
19173;SDS011;9719;49.322;8.536;2022-11-20T03:34:40;21.00;;;8.13;;
19173;SDS011;9719;49.322;8.536;2022-11-20T03:39:43;15.13;;;8.67;;
19173;SDS011;9719;49.322;8.536;2022-11-20T03:44:45;15.10;;;8.33;;
19173;SDS011;9719;49.322;8.536;2022-11-20T03:49:47;27.07;;;10.00;;
19173;SDS011;9719;49.322;8.536;2022-11-20T03:54:50;13.40;;;8.33;;
19173;SDS011;9719;49.322;8.536;2022-11-20T03:59:52;13.47;;;7.30;;
19173;SDS011;9719;49.322;8.536;2022-11-20T04:04:53;18.97;;;9.00;;
19173;SDS011;9719;49.322;8.536;2022-11-20T04:09:57;13.03;;;6.93;;
19173;SDS011;9719;49.322;8.536;2022-11-20T04:14:58;13.87;;;7.30;;
19173;SDS011;9719;49.322;8.536;2022-11-20T04:20:00;17.17;;;6.70;;
19173;SDS011;9719;49.322;8.536;2022-11-20T04:25:04;12.13;;;8.43;;
19173;SDS011;9719;49.322;8.536;2022-11-20T04:30:06;20.00;;;8.20;;
19173;SDS011;9719;49.322;8.536;2022-11-20T04:35:09;17.17;;;8.30;;
19173;SDS011;9719;49.322;8.536;2022-11-20T04:45:15;17.53;;;7.97;;
19173;SDS011;9719;49.322;8.536;2022-11-20T04:50:17;20.63;;;8.53;;
19173;SDS011;9719;49.322;8.536;2022-11-20T04:55:20;15.93;;;7.37;;
19173;SDS011;9719;49.322;8.536;2022-11-20T05:00:22;14.13;;;6.97;;
19173;SDS011;9719;49.322;8.536;2022-11-20T05:05:24;20.80;;;9.20;;
19173;SDS011;9719;49.322;8.536;2022-11-20T05:10:27;19.07;;;9.40;;
19173;SDS011;9719;49.322;8.536;2022-11-20T05:15:29;22.60;;;9.63;;
19173;SDS011;9719;49.322;8.536;2022-11-20T05:20:31;13.17;;;9.37;;
19173;SDS011;9719;49.322;8.536;2022-11-20T05:25:34;18.55;;;9.50;;
19173;SDS011;9719;49.322;8.536;2022-11-20T05:30:36;44.42;;;13.15;;
19173;SDS011;9719;49.322;8.536;2022-11-20T05:35:37;30.63;;;9.87;;
19173;SDS011;9719;49.322;8.536;2022-11-20T05:40:41;22.67;;;9.83;;
19173;SDS011;9719;49.322;8.536;2022-11-20T05:45:42;21.58;;;8.13;;
19173;SDS011;9719;49.322;8.536;2022-11-20T05:50:52;26.87;;;14.60;;
19173;SDS011;9719;49.322;8.536;2022-11-20T05:55:58;22.27;;;11.60;;
19173;SDS011;9719;49.322;8.536;2022-11-20T06:01:05;26.83;;;10.60;;
19173;SDS011;9719;49.322;8.536;2022-11-20T06:06:09;23.00;;;10.20;;
19173;SDS011;9719;49.322;8.536;2022-11-20T06:11:12;27.23;;;11.03;;
19173;SDS011;9719;49.322;8.536;2022-11-20T06:16:15;26.10;;;10.10;;
19173;SDS011;9719;49.322;8.536;2022-11-20T06:21:20;26.37;;;10.43;;
19173;SDS011;9719;49.322;8.536;2022-11-20T06:26:24;22.33;;;11.40;;
19173;SDS011;9719;49.322;8.536;2022-11-20T06:31:28;30.27;;;10.40;;
19173;SDS011;9719;49.322;8.536;2022-11-20T06:36:32;49.10;;;14.40;;
19173;SDS011;9719;49.322;8.536;2022-11-20T06:41:36;28.50;;;12.83;;
19173;SDS011;9719;49.322;8.536;2022-11-20T06:46:37;30.45;;;12.90;;
19173;SDS011;9719;49.322;8.536;2022-11-20T06:51:39;22.80;;;10.80;;
19173;SDS011;9719;49.322;8.536;2022-11-20T06:56:42;20.17;;;11.00;;
19173;SDS011;9719;49.322;8.536;2022-11-20T07:01:47;17.92;;;9.73;;
19173;SDS011;9719;49.322;8.536;2022-11-20T07:06:49;29.10;;;10.88;;
19173;SDS011;9719;49.322;8.536;2022-11-20T07:11:52;19.92;;;12.40;;
19173;SDS011;9719;49.322;8.536;2022-11-20T07:16:54;23.58;;;10.85;;
19173;SDS011;9719;49.322;8.536;2022-11-20T07:21:56;34.05;;;12.50;;
19173;SDS011;9719;49.322;8.536;2022-11-20T07:27:00;26.60;;;9.85;;
19173;SDS011;9719;49.322;8.536;2022-11-20T07:32:04;28.58;;;10.80;;
19173;SDS011;9719;49.322;8.536;2022-11-20T07:37:06;24.02;;;9.80;;
19173;SDS011;9719;49.322;8.536;2022-11-20T07:42:09;18.83;;;7.88;;
19173;SDS011;9719;49.322;8.536;2022-11-20T07:47:12;12.70;;;7.27;;
19173;SDS011;9719;49.322;8.536;2022-11-20T07:52:15;11.73;;;6.53;;
19173;SDS011;9719;49.322;8.536;2022-11-20T07:57:18;12.70;;;6.90;;
19173;SDS011;9719;49.322;8.536;2022-11-20T08:02:20;9.27;;;5.87;;
19173;SDS011;9719;49.322;8.536;2022-11-20T08:07:22;13.60;;;6.87;;
19173;SDS011;9719;49.322;8.536;2022-11-20T08:12:25;14.67;;;7.03;;
19173;SDS011;9719;49.322;8.536;2022-11-20T08:17:44;13.27;;;7.73;;
19173;SDS011;9719;49.322;8.536;2022-11-20T08:22:46;14.27;;;7.10;;
19173;SDS011;9719;49.322;8.536;2022-11-20T08:27:49;10.20;;;6.32;;
19173;SDS011;9719;49.322;8.536;2022-11-20T08:32:51;15.57;;;6.93;;
19173;SDS011;9719;49.322;8.536;2022-11-20T08:37:53;14.70;;;7.20;;
19173;SDS011;9719;49.322;8.536;2022-11-20T08:42:56;12.88;;;7.57;;
19173;SDS011;9719;49.322;8.536;2022-11-20T08:47:59;12.70;;;7.00;;
19173;SDS011;9719;49.322;8.536;2022-11-20T08:53:02;9.73;;;6.10;;
19173;SDS011;9719;49.322;8.536;2022-11-20T08:58:06;13.15;;;5.85;;
19173;SDS011;9719;49.322;8.536;2022-11-20T09:03:08;9.75;;;5.72;;
19173;SDS011;9719;49.322;8.536;2022-11-20T09:08:10;9.13;;;5.93;;
19173;SDS011;9719;49.322;8.536;2022-11-20T09:13:13;9.77;;;6.28;;
19173;SDS011;9719;49.322;8.536;2022-11-20T09:18:15;11.18;;;6.82;;
19173;SDS011;9719;49.322;8.536;2022-11-20T09:23:17;10.25;;;6.63;;
19173;SDS011;9719;49.322;8.536;2022-11-20T09:28:20;14.00;;;6.00;;
19173;SDS011;9719;49.322;8.536;2022-11-20T09:33:22;8.35;;;6.03;;
19173;SDS011;9719;49.322;8.536;2022-11-20T09:38:24;8.48;;;5.93;;
19173;SDS011;9719;49.322;8.536;2022-11-20T09:43:30;8.05;;;5.95;;
19173;SDS011;9719;49.322;8.536;2022-11-20T09:48:46;9.52;;;5.90;;
19173;SDS011;9719;49.322;8.536;2022-11-20T09:54:00;9.25;;;6.03;;
19173;SDS011;9719;49.322;8.536;2022-11-20T09:59:14;6.20;;;4.75;;
19173;SDS011;9719;49.322;8.536;2022-11-20T10:04:23;5.20;;;4.70;;
19173;SDS011;9719;49.322;8.536;2022-11-20T10:09:27;7.65;;;5.53;;
19173;SDS011;9719;49.322;8.536;2022-11-20T10:14:37;7.72;;;5.25;;
19173;SDS011;9719;49.322;8.536;2022-11-20T10:19:48;9.25;;;6.15;;
19173;SDS011;9719;49.322;8.536;2022-11-20T10:25:04;9.23;;;6.15;;
19173;SDS011;9719;49.322;8.536;2022-11-20T10:30:14;7.40;;;5.30;;
19173;SDS011;9719;49.322;8.536;2022-11-20T10:35:21;6.70;;;4.78;;
19173;SDS011;9719;49.322;8.536;2022-11-20T10:40:28;5.78;;;4.90;;
19173;SDS011;9719;49.322;8.536;2022-11-20T10:45:43;5.25;;;4.72;;
19173;SDS011;9719;49.322;8.536;2022-11-20T10:56:17;5.35;;;4.90;;
19173;SDS011;9719;49.322;8.536;2022-11-20T11:01:22;5.88;;;5.15;;
19173;SDS011;9719;49.322;8.536;2022-11-20T11:06:28;6.63;;;4.72;;
19173;SDS011;9719;49.322;8.536;2022-11-20T11:11:35;4.28;;;3.97;;
19173;SDS011;9719;49.322;8.536;2022-11-20T11:16:49;4.82;;;4.35;;
19173;SDS011;9719;49.322;8.536;2022-11-20T11:21:53;4.32;;;3.80;;
19173;SDS011;9719;49.322;8.536;2022-11-20T11:26:57;4.55;;;3.05;;
19173;SDS011;9719;49.322;8.536;2022-11-20T11:32:06;4.60;;;2.88;;
19173;SDS011;9719;49.322;8.536;2022-11-20T11:37:11;3.42;;;3.08;;
19173;SDS011;9719;49.322;8.536;2022-11-20T11:42:18;4.15;;;2.90;;
19173;SDS011;9719;49.322;8.536;2022-11-20T11:47:22;3.08;;;2.83;;
19173;SDS011;9719;49.322;8.536;2022-11-20T11:52:26;2.83;;;2.20;;
19173;SDS011;9719;49.322;8.536;2022-11-20T11:57:33;2.53;;;2.40;;
19173;SDS011;9719;49.322;8.536;2022-11-20T12:02:49;2.85;;;2.40;;
19173;SDS011;9719;49.322;8.536;2022-11-20T12:07:59;2.55;;;2.35;;
19173;SDS011;9719;49.322;8.536;2022-11-20T12:13:09;2.58;;;2.28;;
19173;SDS011;9719;49.322;8.536;2022-11-20T12:18:23;2.80;;;2.10;;
19173;SDS011;9719;49.322;8.536;2022-11-20T12:23:26;4.05;;;2.05;;
19173;SDS011;9719;49.322;8.536;2022-11-20T12:28:42;2.35;;;2.15;;
19173;SDS011;9719;49.322;8.536;2022-11-20T12:34:12;3.08;;;2.42;;
19173;SDS011;9719;49.322;8.536;2022-11-20T12:39:30;5.57;;;3.05;;
19173;SDS011;9719;49.322;8.536;2022-11-20T12:44:40;5.82;;;2.88;;
19173;SDS011;9719;49.322;8.536;2022-11-20T12:50:14;2.63;;;1.70;;
19173;SDS011;9719;49.322;8.536;2022-11-20T12:55:32;2.47;;;2.10;;
19173;SDS011;9719;49.322;8.536;2022-11-20T13:00:43;3.40;;;2.00;;
19173;SDS011;9719;49.322;8.536;2022-11-20T13:05:59;4.72;;;2.08;;
19173;SDS011;9719;49.322;8.536;2022-11-20T13:11:08;2.85;;;1.77;;
19173;SDS011;9719;49.322;8.536;2022-11-20T13:16:17;3.42;;;2.20;;
19173;SDS011;9719;49.322;8.536;2022-11-20T13:21:36;2.40;;;1.60;;
19173;SDS011;9719;49.322;8.536;2022-11-20T13:26:39;1.58;;;1.48;;
19173;SDS011;9719;49.322;8.536;2022-11-20T13:31:42;1.48;;;1.13;;
19173;SDS011;9719;49.322;8.536;2022-11-20T13:36:52;3.00;;;1.30;;
19173;SDS011;9719;49.322;8.536;2022-11-20T13:42:01;3.42;;;1.50;;
19173;SDS011;9719;49.322;8.536;2022-11-20T13:47:22;3.03;;;1.70;;
19173;SDS011;9719;49.322;8.536;2022-11-20T13:52:30;1.77;;;1.20;;
19173;SDS011;9719;49.322;8.536;2022-11-20T13:57:49;2.25;;;1.65;;
19173;SDS011;9719;49.322;8.536;2022-11-20T14:03:02;3.03;;;1.30;;
19173;SDS011;9719;49.322;8.536;2022-11-20T14:08:15;2.97;;;1.83;;
19173;SDS011;9719;49.322;8.536;2022-11-20T14:13:24;1.48;;;1.20;;
19173;SDS011;9719;49.322;8.536;2022-11-20T14:18:26;3.67;;;1.60;;
19173;SDS011;9719;49.322;8.536;2022-11-20T14:23:29;2.45;;;1.27;;
19173;SDS011;9719;49.322;8.536;2022-11-20T14:28:31;1.75;;;1.30;;
19173;SDS011;9719;49.322;8.536;2022-11-20T14:33:33;1.73;;;1.15;;
19173;SDS011;9719;49.322;8.536;2022-11-20T14:38:37;1.60;;;1.25;;
19173;SDS011;9719;49.322;8.536;2022-11-20T14:43:40;1.20;;;1.10;;
19173;SDS011;9719;49.322;8.536;2022-11-20T14:48:47;3.25;;;1.50;;
19173;SDS011;9719;49.322;8.536;2022-11-20T14:53:53;3.85;;;1.95;;
19173;SDS011;9719;49.322;8.536;2022-11-20T14:58:55;4.78;;;1.45;;
19173;SDS011;9719;49.322;8.536;2022-11-20T15:04:00;1.67;;;1.25;;
19173;SDS011;9719;49.322;8.536;2022-11-20T15:09:12;2.15;;;1.45;;
19173;SDS011;9719;49.322;8.536;2022-11-20T15:14:16;1.75;;;1.65;;
19173;SDS011;9719;49.322;8.536;2022-11-20T15:19:18;2.50;;;1.65;;
19173;SDS011;9719;49.322;8.536;2022-11-20T15:24:23;1.80;;;1.70;;
19173;SDS011;9719;49.322;8.536;2022-11-20T15:29:25;2.10;;;1.40;;
19173;SDS011;9719;49.322;8.536;2022-11-20T15:34:27;1.95;;;1.70;;
19173;SDS011;9719;49.322;8.536;2022-11-20T15:39:30;2.25;;;1.70;;
19173;SDS011;9719;49.322;8.536;2022-11-20T15:44:32;2.80;;;1.58;;
19173;SDS011;9719;49.322;8.536;2022-11-20T15:49:34;4.32;;;1.73;;
19173;SDS011;9719;49.322;8.536;2022-11-20T15:54:38;2.38;;;1.88;;
19173;SDS011;9719;49.322;8.536;2022-11-20T15:59:40;3.53;;;1.80;;
19173;SDS011;9719;49.322;8.536;2022-11-20T16:04:42;3.45;;;2.03;;
19173;SDS011;9719;49.322;8.536;2022-11-20T16:09:45;5.80;;;2.38;;
19173;SDS011;9719;49.322;8.536;2022-11-20T16:14:47;2.25;;;1.98;;
19173;SDS011;9719;49.322;8.536;2022-11-20T16:20:09;1.85;;;1.63;;
19173;SDS011;9719;49.322;8.536;2022-11-20T16:25:13;1.75;;;1.50;;
19173;SDS011;9719;49.322;8.536;2022-11-20T16:30:15;1.88;;;1.70;;
19173;SDS011;9719;49.322;8.536;2022-11-20T16:35:17;1.98;;;1.80;;
19173;SDS011;9719;49.322;8.536;2022-11-20T16:40:20;3.10;;;2.28;;
19173;SDS011;9719;49.322;8.536;2022-11-20T16:45:22;1.77;;;1.67;;
19173;SDS011;9719;49.322;8.536;2022-11-20T16:50:24;1.83;;;1.73;;
19173;SDS011;9719;49.322;8.536;2022-11-20T16:55:27;3.17;;;1.77;;
19173;SDS011;9719;49.322;8.536;2022-11-20T17:00:29;2.60;;;1.98;;
19173;SDS011;9719;49.322;8.536;2022-11-20T17:05:31;2.55;;;2.35;;
19173;SDS011;9719;49.322;8.536;2022-11-20T17:10:34;3.75;;;2.13;;
19173;SDS011;9719;49.322;8.536;2022-11-20T17:15:36;2.60;;;2.40;;
19173;SDS011;9719;49.322;8.536;2022-11-20T17:20:38;2.00;;;1.73;;
19173;SDS011;9719;49.322;8.536;2022-11-20T17:25:41;1.58;;;1.48;;
19173;SDS011;9719;49.322;8.536;2022-11-20T17:30:42;2.42;;;2.22;;
19173;SDS011;9719;49.322;8.536;2022-11-20T17:35:44;3.33;;;1.92;;
19173;SDS011;9719;49.322;8.536;2022-11-20T17:40:47;1.65;;;1.55;;
19173;SDS011;9719;49.322;8.536;2022-11-20T17:45:49;1.42;;;1.33;;
19173;SDS011;9719;49.322;8.536;2022-11-20T17:50:51;1.60;;;1.50;;
19173;SDS011;9719;49.322;8.536;2022-11-20T17:55:57;1.50;;;1.40;;
19173;SDS011;9719;49.322;8.536;2022-11-20T18:01:31;3.78;;;2.83;;
19173;SDS011;9719;49.322;8.536;2022-11-20T18:06:33;4.35;;;1.83;;
19173;SDS011;9719;49.322;8.536;2022-11-20T18:11:36;3.63;;;2.42;;
19173;SDS011;9719;49.322;8.536;2022-11-20T18:16:40;2.10;;;1.60;;
19173;SDS011;9719;49.322;8.536;2022-11-20T18:21:43;3.45;;;1.52;;
19173;SDS011;9719;49.322;8.536;2022-11-20T18:26:47;1.50;;;1.40;;
19173;SDS011;9719;49.322;8.536;2022-11-20T18:31:49;3.47;;;1.40;;
19173;SDS011;9719;49.322;8.536;2022-11-20T18:36:51;2.55;;;1.90;;
19173;SDS011;9719;49.322;8.536;2022-11-20T18:41:54;1.70;;;1.60;;
19173;SDS011;9719;49.322;8.536;2022-11-20T18:47:13;1.60;;;1.50;;
19173;SDS011;9719;49.322;8.536;2022-11-20T18:52:17;3.70;;;1.80;;
19173;SDS011;9719;49.322;8.536;2022-11-20T18:57:23;2.20;;;1.48;;
19173;SDS011;9719;49.322;8.536;2022-11-20T19:02:26;1.95;;;1.45;;
19173;SDS011;9719;49.322;8.536;2022-11-20T19:07:28;1.85;;;1.75;;
19173;SDS011;9719;49.322;8.536;2022-11-20T19:12:32;1.73;;;1.60;;
19173;SDS011;9719;49.322;8.536;2022-11-20T19:17:33;3.20;;;2.90;;
19173;SDS011;9719;49.322;8.536;2022-11-20T19:22:35;1.92;;;1.83;;
19173;SDS011;9719;49.322;8.536;2022-11-20T19:27:38;2.45;;;1.83;;
19173;SDS011;9719;49.322;8.536;2022-11-20T19:32:40;2.15;;;2.05;;
19173;SDS011;9719;49.322;8.536;2022-11-20T19:37:42;2.05;;;1.85;;
19173;SDS011;9719;49.322;8.536;2022-11-20T19:42:45;4.95;;;2.13;;
19173;SDS011;9719;49.322;8.536;2022-11-20T19:47:46;3.38;;;2.00;;
19173;SDS011;9719;49.322;8.536;2022-11-20T19:52:48;2.88;;;2.50;;
19173;SDS011;9719;49.322;8.536;2022-11-20T19:57:51;2.20;;;1.97;;
19173;SDS011;9719;49.322;8.536;2022-11-20T20:02:53;2.03;;;1.83;;
19173;SDS011;9719;49.322;8.536;2022-11-20T20:07:55;2.80;;;1.90;;
19173;SDS011;9719;49.322;8.536;2022-11-20T20:12:58;2.33;;;2.10;;
19173;SDS011;9719;49.322;8.536;2022-11-20T20:18:00;1.88;;;1.77;;
19173;SDS011;9719;49.322;8.536;2022-11-20T20:23:02;2.10;;;1.90;;
19173;SDS011;9719;49.322;8.536;2022-11-20T20:28:07;2.35;;;1.92;;
19173;SDS011;9719;49.322;8.536;2022-11-20T20:33:09;2.25;;;2.00;;
19173;SDS011;9719;49.322;8.536;2022-11-20T20:38:11;2.25;;;2.05;;
19173;SDS011;9719;49.322;8.536;2022-11-20T20:43:14;1.95;;;1.85;;
19173;SDS011;9719;49.322;8.536;2022-11-20T20:48:16;2.28;;;2.10;;
19173;SDS011;9719;49.322;8.536;2022-11-20T20:53:20;2.28;;;1.80;;
19173;SDS011;9719;49.322;8.536;2022-11-20T20:58:23;1.92;;;1.83;;
19173;SDS011;9719;49.322;8.536;2022-11-20T21:03:25;2.33;;;2.15;;
19173;SDS011;9719;49.322;8.536;2022-11-20T21:08:27;2.97;;;2.67;;
19173;SDS011;9719;49.322;8.536;2022-11-20T21:13:31;3.45;;;2.58;;
19173;SDS011;9719;49.322;8.536;2022-11-20T21:18:33;1.98;;;1.88;;
19173;SDS011;9719;49.322;8.536;2022-11-20T21:23:35;2.65;;;2.33;;
19173;SDS011;9719;49.322;8.536;2022-11-20T21:28:38;2.55;;;2.10;;
19173;SDS011;9719;49.322;8.536;2022-11-20T21:33:41;1.88;;;1.77;;
19173;SDS011;9719;49.322;8.536;2022-11-20T21:38:43;1.80;;;1.70;;
19173;SDS011;9719;49.322;8.536;2022-11-20T21:43:47;1.90;;;1.70;;
19173;SDS011;9719;49.322;8.536;2022-11-20T21:48:50;4.40;;;2.45;;
19173;SDS011;9719;49.322;8.536;2022-11-20T21:53:53;2.95;;;2.75;;
19173;SDS011;9719;49.322;8.536;2022-11-20T21:58:56;3.47;;;2.47;;
19173;SDS011;9719;49.322;8.536;2022-11-20T22:03:59;2.20;;;2.00;;
19173;SDS011;9719;49.322;8.536;2022-11-20T22:09:02;2.47;;;2.03;;
19173;SDS011;9719;49.322;8.536;2022-11-20T22:14:05;2.10;;;1.90;;
19173;SDS011;9719;49.322;8.536;2022-11-20T22:19:21;2.70;;;2.23;;
19173;SDS011;9719;49.322;8.536;2022-11-20T22:24:23;1.98;;;1.88;;
19173;SDS011;9719;49.322;8.536;2022-11-20T22:29:26;2.75;;;2.22;;
19173;SDS011;9719;49.322;8.536;2022-11-20T22:34:29;3.92;;;2.22;;
19173;SDS011;9719;49.322;8.536;2022-11-20T22:39:30;2.90;;;2.17;;
19173;SDS011;9719;49.322;8.536;2022-11-20T22:44:33;3.17;;;2.20;;
19173;SDS011;9719;49.322;8.536;2022-11-20T22:49:35;2.15;;;1.95;;
19173;SDS011;9719;49.322;8.536;2022-11-20T22:54:37;2.28;;;2.00;;
19173;SDS011;9719;49.322;8.536;2022-11-20T22:59:40;3.28;;;2.60;;
19173;SDS011;9719;49.322;8.536;2022-11-20T23:04:42;2.25;;;2.15;;
19173;SDS011;9719;49.322;8.536;2022-11-20T23:09:44;2.95;;;1.85;;
19173;SDS011;9719;49.322;8.536;2022-11-20T23:14:47;1.80;;;1.53;;
19173;SDS011;9719;49.322;8.536;2022-11-20T23:19:49;3.67;;;2.88;;
19173;SDS011;9719;49.322;8.536;2022-11-20T23:24:50;3.70;;;1.75;;
19173;SDS011;9719;49.322;8.536;2022-11-20T23:29:54;2.28;;;1.98;;
19173;SDS011;9719;49.322;8.536;2022-11-20T23:34:58;2.73;;;1.50;;
19173;SDS011;9719;49.322;8.536;2022-11-20T23:39:59;3.22;;;1.67;;
19173;SDS011;9719;49.322;8.536;2022-11-20T23:45:03;2.35;;;1.67;;
19173;SDS011;9719;49.322;8.536;2022-11-20T23:50:05;4.07;;;1.52;;
19173;SDS011;9719;49.322;8.536;2022-11-20T23:55:07;3.22;;;1.90;;
